createdAt,value
2018-10-07T00:05:55.799Z,24.6
2018-10-07T00:15:55.033Z,24.6
2018-10-07T00:25:54.246Z,24.6
2018-10-07T00:35:53.467Z,24.6
2018-10-07T00:45:52.697Z,24.6
2018-10-07T00:55:51.917Z,24.6
2018-10-07T01:05:51.138Z,24.6
2018-10-07T01:15:50.359Z,24.6
2018-10-07T01:25:49.580Z,24.6
2018-10-07T01:35:48.803Z,24.6
2018-10-07T01:45:48.019Z,24.6
2018-10-07T01:55:47.241Z,24.6
2018-10-07T02:05:46.462Z,24.6
2018-10-07T02:15:45.689Z,24.6
2018-10-07T02:25:44.911Z,24.6
2018-10-07T02:35:44.132Z,24.6
2018-10-07T02:45:43.352Z,24.6
2018-10-07T02:55:42.569Z,24.5
2018-10-07T03:05:41.794Z,24.5
2018-10-07T03:15:41.015Z,24.5
2018-10-07T03:25:40.236Z,24.5
2018-10-07T03:35:39.458Z,24.4
2018-10-07T03:45:38.675Z,24.4
2018-10-07T03:55:37.900Z,24.4
2018-10-07T04:05:37.122Z,24.4
2018-10-07T04:15:36.337Z,24.4
2018-10-07T04:25:35.558Z,24.4
2018-10-07T04:35:34.779Z,24.4
2018-10-07T04:45:34.000Z,24.4
2018-10-07T04:55:33.221Z,24.4
2018-10-07T05:05:32.444Z,24.4
2018-10-07T05:15:31.666Z,24.6
2018-10-07T05:25:30.889Z,25.1
2018-10-07T05:35:30.110Z,25.8
2018-10-07T05:45:29.337Z,26.4
2018-10-07T05:55:28.576Z,27.1
2018-10-07T06:05:27.776Z,27.5
2018-10-07T06:15:27.001Z,27.4
2018-10-07T06:25:26.223Z,27
2018-10-07T06:35:25.452Z,26.7
2018-10-07T06:45:24.720Z,26.5
2018-10-07T06:55:23.890Z,26.4
2018-10-07T07:05:23.108Z,26.4
2018-10-07T07:15:22.337Z,26.4
2018-10-07T07:25:21.555Z,26.4
2018-10-07T07:35:20.783Z,26.5
2018-10-07T07:45:20.004Z,26.6
2018-10-07T07:55:19.230Z,26.7
2018-10-07T08:05:18.448Z,26.8
2018-10-07T08:15:17.674Z,26.8
2018-10-07T08:25:16.898Z,26.7
2018-10-07T08:35:16.179Z,26.7
2018-10-07T08:45:15.342Z,26.7
2018-10-07T08:55:14.569Z,26.7
2018-10-07T09:05:13.787Z,26.6
2018-10-07T09:15:13.010Z,26.6
2018-10-07T09:25:12.235Z,26.6
2018-10-07T09:35:11.457Z,26.5
2018-10-07T09:45:10.682Z,26.5
2018-10-07T09:55:09.905Z,26.4
2018-10-07T10:05:09.135Z,26.4
2018-10-07T10:15:08.352Z,26.4
2018-10-07T10:25:07.573Z,26.3
2018-10-07T10:35:06.799Z,26.3
2018-10-07T10:45:06.018Z,26.3
2018-10-07T10:55:05.283Z,26.2
2018-10-07T11:05:04.460Z,26.1
2018-10-07T11:15:03.696Z,26.1
2018-10-07T11:25:02.901Z,26.1
2018-10-07T11:35:02.130Z,26
2018-10-07T11:45:01.353Z,25.9
2018-10-07T11:55:00.568Z,25.9
2018-10-07T12:04:59.808Z,25.8
2018-10-07T12:14:59.028Z,25.8
2018-10-07T12:24:58.252Z,25.6
2018-10-07T12:34:57.481Z,25.6
2018-10-07T12:44:56.693Z,25.6
2018-10-07T12:54:55.915Z,25.6
2018-10-07T13:04:55.139Z,25.6
2018-10-07T13:14:54.375Z,25.6
2018-10-07T13:24:53.580Z,25.7
2018-10-07T13:34:52.798Z,25.7
2018-10-07T13:44:52.023Z,25.6
2018-10-07T13:54:51.246Z,25.6
2018-10-07T14:04:50.467Z,25.4
2018-10-07T14:14:49.688Z,25.3
2018-10-07T14:24:48.957Z,25.2
2018-10-07T14:34:48.121Z,25.2
2018-10-07T14:44:47.343Z,25.2
2018-10-07T14:54:46.563Z,25.1
2018-10-07T15:04:45.790Z,25.1
2018-10-07T15:14:45.015Z,25.1
2018-10-07T15:24:44.231Z,25.1
2018-10-07T15:34:43.450Z,25.1
2018-10-07T15:44:42.667Z,25.1
2018-10-07T15:54:41.892Z,25
2018-10-07T16:04:41.115Z,24.9
2018-10-07T16:14:40.328Z,24.9
2018-10-07T16:24:39.552Z,24.9
2018-10-07T16:34:38.774Z,24.9
2018-10-07T16:44:38.005Z,24.9
2018-10-07T16:54:37.222Z,24.9
2018-10-07T17:04:36.501Z,25
2018-10-07T17:14:35.669Z,25.1
2018-10-07T17:24:34.899Z,25.1
2018-10-07T17:34:34.126Z,25
2018-10-07T17:44:33.343Z,25
2018-10-07T17:54:32.564Z,24.9
2018-10-07T18:04:31.796Z,24.9
2018-10-07T18:14:31.069Z,24.9
2018-10-07T18:24:30.241Z,24.9
2018-10-07T18:34:29.486Z,24.9
2018-10-07T18:44:28.691Z,24.9
2018-10-07T18:54:27.919Z,24.9
2018-10-07T19:04:27.134Z,24.9
2018-10-07T19:14:26.341Z,24.9
2018-10-07T19:24:25.565Z,25
2018-10-07T19:34:24.798Z,25
2018-10-07T19:44:24.018Z,25.1
2018-10-07T19:54:23.237Z,25.2
2018-10-07T20:04:22.517Z,25.2
2018-10-07T20:14:21.692Z,25.2
2018-10-07T20:24:20.913Z,25.1
2018-10-07T20:34:20.131Z,25.1
2018-10-07T20:44:19.364Z,25.1
2018-10-07T20:54:18.581Z,25.1
2018-10-07T21:04:17.800Z,25.1
2018-10-07T21:14:17.071Z,25.1
2018-10-07T21:24:16.410Z,25.1
2018-10-07T21:34:15.475Z,25.1
2018-10-07T21:44:14.703Z,25.1
2018-10-07T21:54:13.924Z,25.1
2018-10-07T22:04:13.144Z,25.1
2018-10-07T22:14:12.371Z,25.1
2018-10-07T22:24:11.588Z,25.1
2018-10-07T22:34:10.809Z,25.1
2018-10-07T22:44:10.033Z,25.1
2018-10-07T22:54:09.260Z,25.1
2018-10-07T23:04:08.483Z,25.1
2018-10-07T23:14:07.705Z,25.1
2018-10-07T23:24:06.927Z,25.1
2018-10-07T23:34:06.144Z,25.1
2018-10-07T23:44:05.371Z,25.1
2018-10-07T23:54:04.595Z,25.1
